Time;durP1;ratioP1;P1;durP2;ratioP2;P2;SDS_P1;SDS_P2;PMS_P1;PMS_P2;Temp;Humidity;BMP_temperature;BMP_pressure;BME280_temperature;BME280_humidity;BME280_pressure;Samples;Min_cycle;Max_cycle;Signal;HPM_P1;HPM_P2
2023/03/18 00:01:55;;;;;;;38.15;34.17;;;28.70;78.80;;;;;;5006849;28;20026;-54
2023/03/18 00:04:23;;;;;;;37.40;32.75;;;28.70;78.90;;;;;;5024276;28;20037;-52
2023/03/18 00:06:51;;;;;;;34.15;30.55;;;28.70;78.70;;;;;;5024529;28;20311;-53
2023/03/18 00:09:17;;;;;;;33.60;29.85;;;28.70;78.70;;;;;;5024624;28;20037;-50
2023/03/18 00:11:44;;;;;;;31.85;28.42;;;28.70;78.40;;;;;;5007950;28;20025;-49
2023/03/18 00:14:15;;;;;;;32.15;28.77;;;28.70;78.30;;;;;;5003962;28;20014;-52
2023/03/18 00:16:41;;;;;;;33.80;27.33;;;28.70;78.20;;;;;;5003046;28;20026;-46
2023/03/18 00:19:08;;;;;;;30.83;26.90;;;28.70;78.20;;;;;;5004522;28;20088;-51
2023/03/18 00:21:34;;;;;;;30.70;26.45;;;28.70;78.40;;;;;;5005015;28;20034;-47
2023/03/18 00:24:02;;;;;;;28.38;25.52;;;28.70;78.20;;;;;;5004408;28;20033;-47
2023/03/18 00:26:28;;;;;;;31.50;26.35;;;28.60;78.20;;;;;;4987338;28;20266;-55
2023/03/18 00:28:56;;;;;;;30.05;26.88;;;28.60;78.10;;;;;;5004248;28;20045;-51
2023/03/18 00:31:26;;;;;;;33.60;26.42;;;28.60;78.10;;;;;;5004789;28;20015;-48
2023/03/18 00:33:53;;;;;;;31.90;25.95;;;28.60;77.90;;;;;;5004264;28;20026;-46
2023/03/18 00:36:24;;;;;;;28.55;25.48;;;28.60;78.10;;;;;;5004106;28;20018;-52
2023/03/18 00:38:56;;;;;;;29.30;25.85;;;28.60;77.40;;;;;;5004450;28;20034;-50
2023/03/18 00:41:31;;;;;;;28.30;25.23;;;28.60;77.40;;;;;;5004112;28;20121;-48
2023/03/18 00:43:59;;;;;;;29.05;24.83;;;28.60;77.20;;;;;;5004511;28;20094;-55
2023/03/18 00:46:28;;;;;;;30.38;24.90;;;28.60;77.10;;;;;;5007950;28;20034;-48
2023/03/18 00:48:59;;;;;;;28.02;25.00;;;28.60;77.20;;;;;;5008438;28;20030;-48
2023/03/18 00:51:43;;;;;;;28.33;23.95;;;28.60;77.10;;;;;;5008047;28;20030;-46
2023/03/18 00:54:16;;;;;;;30.92;24.00;;;28.50;77.20;;;;;;4990308;28;20038;-47
2023/03/18 00:57:09;;;;;;;26.65;24.05;;;28.60;77.10;;;;;;5008206;28;20045;-48
2023/03/18 00:59:45;;;;;;;27.77;24.85;;;28.50;77.10;;;;;;5007881;28;20034;-49
2023/03/18 01:02:14;;;;;;;28.13;25.02;;;28.50;77.00;;;;;;5008021;28;20026;-48
2023/03/18 01:04:41;;;;;;;27.45;24.80;;;28.50;77.00;;;;;;5008341;28;20048;-52
2023/03/18 01:07:09;;;;;;;28.73;25.92;;;28.40;76.80;;;;;;5008125;28;20026;-52
2023/03/18 01:09:39;;;;;;;29.10;25.83;;;28.40;76.70;;;;;;5008109;28;20034;-48
2023/03/18 01:12:08;;;;;;;28.55;25.75;;;28.40;76.50;;;;;;5008002;28;20022;-47
2023/03/18 01:14:36;;;;;;;29.35;26.08;;;28.40;76.50;;;;;;5007977;28;20299;-49
2023/03/18 01:17:05;;;;;;;29.40;26.27;;;28.40;76.60;;;;;;5007441;28;20031;-51
2023/03/18 01:19:32;;;;;;;29.50;26.02;;;28.40;77.40;;;;;;5007760;28;20057;-45
2023/03/18 01:22:07;;;;;;;30.75;27.45;;;28.30;76.80;;;;;;5007688;28;20026;-50
2023/03/18 01:24:40;;;;;;;33.22;29.75;;;28.40;76.60;;;;;;4990037;28;20034;-47
2023/03/18 01:27:07;;;;;;;34.97;30.85;;;28.30;76.70;;;;;;5007586;28;20030;-50
2023/03/18 01:29:35;;;;;;;39.28;33.72;;;28.30;76.50;;;;;;5007589;28;20030;-48
2023/03/18 01:32:01;;;;;;;37.28;33.25;;;28.30;76.60;;;;;;5007531;28;20554;-50
2023/03/18 01:34:29;;;;;;;42.42;33.42;;;28.20;76.50;;;;;;5007442;28;20026;-46
2023/03/18 01:36:56;;;;;;;43.20;32.55;;;28.20;76.40;;;;;;5007525;28;20041;-52
2023/03/18 01:39:23;;;;;;;33.72;29.58;;;28.20;76.30;;;;;;5007121;28;20079;-46
2023/03/18 01:41:50;;;;;;;33.03;29.42;;;28.20;76.80;;;;;;5007099;28;20046;-44
2023/03/18 01:44:24;;;;;;;31.45;28.35;;;28.20;77.10;;;;;;5007277;28;20026;-50
2023/03/18 01:46:52;;;;;;;29.67;26.75;;;28.20;77.30;;;;;;5007326;28;20247;-55
2023/03/18 01:49:24;;;;;;;28.75;25.63;;;28.20;77.40;;;;;;5007331;28;20030;-47
2023/03/18 01:51:56;;;;;;;32.03;26.23;;;28.10;77.80;;;;;;5007194;28;20027;-46
2023/03/18 01:54:25;;;;;;;30.65;25.30;;;28.20;78.60;;;;;;5006852;28;20030;-48
2023/03/18 01:56:52;;;;;;;31.05;25.25;;;28.20;79.30;;;;;;5006187;28;20073;-50
2023/03/18 01:59:22;;;;;;;27.17;24.27;;;28.10;79.50;;;;;;5006987;28;20030;-49
2023/03/18 02:01:55;;;;;;;32.92;25.50;;;28.10;80.00;;;;;;5007178;28;20049;-47
2023/03/18 02:04:26;;;;;;;27.63;24.65;;;28.10;80.50;;;;;;5006906;28;20034;-47
2023/03/18 02:06:53;;;;;;;30.13;26.00;;;28.10;80.70;;;;;;4989514;28;20030;-52
2023/03/18 02:09:19;;;;;;;28.70;24.48;;;28.00;80.90;;;;;;5006747;28;20030;-49
2023/03/18 02:12:00;;;;;;;30.45;25.70;;;28.00;81.10;;;;;;5006916;28;20022;-50
2023/03/18 02:14:27;;;;;;;32.08;25.05;;;28.00;81.10;;;;;;5008925;28;20026;-49
2023/03/18 02:17:02;;;;;;;32.70;26.20;;;28.00;81.20;;;;;;5006825;28;20033;-50
2023/03/18 02:19:28;;;;;;;29.45;24.23;;;28.00;81.30;;;;;;5006279;28;20108;-53
2023/03/18 02:22:17;;;;;;;33.78;25.33;;;28.00;81.40;;;;;;5006685;28;20097;-50
2023/03/18 02:25:18;;;;;;;30.73;24.98;;;28.00;82.00;;;;;;5005900;28;20230;-51
2023/03/18 02:27:50;;;;;;;28.90;25.88;;;28.00;82.20;;;;;;5014625;28;20030;-52
2023/03/18 02:30:27;;;;;;;30.03;26.43;;;28.00;82.40;;;;;;5015000;28;20134;-57
2023/03/18 02:33:05;;;;;;;33.90;28.17;;;27.90;82.30;;;;;;4989545;28;20215;-53
2023/03/18 02:35:33;;;;;;;30.15;26.50;;;27.90;82.10;;;;;;5015532;28;20302;-53
2023/03/18 02:38:00;;;;;;;29.60;26.27;;;27.90;81.70;;;;;;5010824;28;20030;-55
2023/03/18 02:40:37;;;;;;;29.52;26.70;;;27.90;81.50;;;;;;5118171;23;20208;-51
2023/03/18 02:43:26;;;;;;;29.42;26.23;;;27.80;81.00;;;;;;5045821;28;20336;-50
2023/03/18 02:46:11;;;;;;;29.70;26.75;;;27.80;80.70;;;;;;5027976;28;20041;-50
2023/03/18 02:48:51;;;;;;;29.40;26.35;;;27.80;80.60;;;;;;5043230;28;20122;-51
2023/03/18 02:51:19;;;;;;;31.08;27.35;;;27.80;80.40;;;;;;5010361;28;20026;-55
2023/03/18 02:53:47;;;;;;;30.45;27.17;;;27.80;79.90;;;;;;5025308;28;20175;-54
2023/03/18 02:56:25;;;;;;;30.05;26.65;;;27.80;79.80;;;;;;5034355;28;20041;-51
2023/03/18 02:58:55;;;;;;;30.70;27.63;;;27.80;79.20;;;;;;5039159;28;20044;-50
2023/03/18 03:01:22;;;;;;;30.05;26.85;;;27.80;78.70;;;;;;5045065;28;20025;-53
2023/03/18 03:03:49;;;;;;;30.77;27.40;;;27.80;78.00;;;;;;5044824;28;20203;-55
2023/03/18 03:06:16;;;;;;;32.45;28.38;;;27.80;77.60;;;;;;5034411;28;20091;-51
2023/03/18 03:08:43;;;;;;;32.28;28.92;;;27.80;77.20;;;;;;5040752;28;20048;-51
2023/03/18 03:11:11;;;;;;;31.42;28.35;;;27.80;76.90;;;;;;5039565;28;20026;-49
2023/03/18 03:13:40;;;;;;;31.15;27.77;;;27.80;76.50;;;;;;5025399;28;20026;-52
2023/03/18 03:16:14;;;;;;;30.55;27.55;;;27.80;76.70;;;;;;5027072;28;20413;-50
2023/03/18 03:18:42;;;;;;;31.45;28.17;;;27.80;76.70;;;;;;5011290;28;20042;-50
2023/03/18 03:21:10;;;;;;;31.83;28.40;;;27.80;76.70;;;;;;5039182;28;20093;-48
2023/03/18 03:23:37;;;;;;;30.67;27.48;;;27.80;76.70;;;;;;5025281;28;20040;-51
2023/03/18 03:26:05;;;;;;;31.65;28.67;;;27.80;76.50;;;;;;5024194;28;20040;-51
2023/03/18 03:28:32;;;;;;;31.73;28.63;;;27.80;76.50;;;;;;5024568;28;20049;-48
2023/03/18 03:30:59;;;;;;;31.88;28.38;;;27.80;76.40;;;;;;5024839;28;20033;-51
2023/03/18 03:33:27;;;;;;;32.55;28.98;;;27.80;76.90;;;;;;5024657;28;20029;-52
2023/03/18 03:35:54;;;;;;;31.95;28.55;;;27.80;76.80;;;;;;5024458;28;20022;-50
2023/03/18 03:38:21;;;;;;;33.85;28.27;;;27.80;77.10;;;;;;5024416;28;20286;-49
2023/03/18 03:40:50;;;;;;;31.15;27.83;;;27.80;76.60;;;;;;4987758;28;20338;-50
2023/03/18 03:43:17;;;;;;;31.50;28.27;;;27.80;76.40;;;;;;5004880;28;20307;-47
2023/03/18 03:45:43;;;;;;;31.70;28.52;;;27.80;76.30;;;;;;5004873;28;20342;-49
2023/03/18 03:48:11;;;;;;;31.08;28.02;;;27.80;76.10;;;;;;5004809;28;20058;-52
2023/03/18 03:50:39;;;;;;;32.03;28.88;;;27.80;76.00;;;;;;5004651;28;20054;-48
2023/03/18 03:53:06;;;;;;;32.08;28.98;;;27.80;75.70;;;;;;5004822;28;20068;-51
2023/03/18 03:55:32;;;;;;;31.02;28.02;;;27.80;75.70;;;;;;5005356;28;20057;-50
2023/03/18 03:58:00;;;;;;;32.97;29.60;;;27.80;75.50;;;;;;5004640;28;20068;-49
2023/03/18 04:00:27;;;;;;;32.22;29.15;;;27.80;75.60;;;;;;5005114;28;20041;-50
2023/03/18 04:02:55;;;;;;;32.13;28.73;;;27.80;75.60;;;;;;5004685;28;20200;-50
2023/03/18 04:05:23;;;;;;;43.38;39.25;;;27.80;75.20;;;;;;5004935;28;20065;-49
2023/03/18 04:07:51;;;;;;;41.03;37.33;;;27.70;75.40;;;;;;5004730;28;20049;-50
2023/03/18 04:10:19;;;;;;;38.00;34.60;;;27.70;75.40;;;;;;5004861;28;20333;-51
2023/03/18 04:12:46;;;;;;;38.53;34.58;;;27.70;75.40;;;;;;5004584;28;20030;-49
2023/03/18 04:15:16;;;;;;;35.95;32.35;;;27.60;75.40;;;;;;5004929;28;20030;-52
2023/03/18 04:17:43;;;;;;;35.20;31.60;;;27.60;75.50;;;;;;5004482;28;20027;-52
2023/03/18 04:20:12;;;;;;;33.65;30.17;;;27.60;75.60;;;;;;5004043;28;20023;-52
2023/03/18 04:22:39;;;;;;;34.65;31.10;;;27.50;75.70;;;;;;5004586;28;20037;-57
2023/03/18 04:25:07;;;;;;;33.67;30.40;;;27.50;75.70;;;;;;5004717;28;20030;-51
2023/03/18 04:27:33;;;;;;;32.47;29.38;;;27.60;75.80;;;;;;5004124;28;20073;-58
2023/03/18 04:30:00;;;;;;;34.17;30.77;;;27.50;75.50;;;;;;5004665;28;20038;-51
2023/03/18 04:32:27;;;;;;;32.75;29.75;;;27.50;75.60;;;;;;5004335;28;20018;-54
2023/03/18 04:34:53;;;;;;;32.13;28.90;;;27.50;75.40;;;;;;5004610;28;20226;-50
2023/03/18 04:37:20;;;;;;;32.83;29.58;;;27.50;75.10;;;;;;5004130;28;20108;-50
2023/03/18 04:39:47;;;;;;;34.28;30.30;;;27.50;75.10;;;;;;5004163;28;20342;-49
2023/03/18 04:42:14;;;;;;;32.83;29.63;;;27.60;75.20;;;;;;5004284;28;20105;-47
2023/03/18 04:44:41;;;;;;;33.20;29.77;;;27.60;75.10;;;;;;5004421;28;20034;-51
2023/03/18 04:47:08;;;;;;;31.98;29.10;;;27.50;75.10;;;;;;5004360;28;20030;-53
2023/03/18 04:49:34;;;;;;;32.78;29.55;;;27.60;75.10;;;;;;5004478;28;20038;-48
2023/03/18 04:52:01;;;;;;;33.35;29.83;;;27.60;75.10;;;;;;5004069;28;20054;-51
2023/03/18 04:54:28;;;;;;;32.53;29.13;;;27.50;75.10;;;;;;5004365;28;20037;-56
2023/03/18 04:56:54;;;;;;;33.33;30.02;;;27.60;75.10;;;;;;5003994;28;20086;-49
2023/03/18 04:59:21;;;;;;;33.28;29.77;;;27.60;75.10;;;;;;5004067;28;20622;-49
2023/03/18 05:01:47;;;;;;;33.17;29.75;;;27.60;75.00;;;;;;5004011;28;20037;-52
2023/03/18 05:04:14;;;;;;;32.95;29.52;;;27.50;75.10;;;;;;5004101;28;20262;-52
2023/03/18 05:06:41;;;;;;;31.98;28.83;;;27.60;75.20;;;;;;5003724;28;20030;-50
2023/03/18 05:09:08;;;;;;;32.20;28.98;;;27.50;75.00;;;;;;5004028;28;20034;-51
2023/03/18 05:11:35;;;;;;;32.33;29.20;;;27.50;75.10;;;;;;5004010;28;20026;-52
2023/03/18 05:14:02;;;;;;;32.67;29.58;;;27.50;75.10;;;;;;5004210;28;20038;-52
2023/03/18 05:16:29;;;;;;;32.20;28.92;;;27.50;75.20;;;;;;5004119;28;20019;-51
2023/03/18 05:18:56;;;;;;;32.30;28.95;;;27.50;75.20;;;;;;5003930;28;20298;-53
2023/03/18 05:21:24;;;;;;;31.50;28.40;;;27.50;75.30;;;;;;5003688;28;20054;-54
2023/03/18 05:23:50;;;;;;;32.28;29.05;;;27.50;75.20;;;;;;5003865;28;20035;-57
2023/03/18 05:26:17;;;;;;;32.97;29.77;;;27.50;75.10;;;;;;5003902;28;20065;-51
2023/03/18 05:28:44;;;;;;;31.67;28.45;;;27.50;75.10;;;;;;5003707;28;20026;-52
2023/03/18 05:31:10;;;;;;;33.17;29.75;;;27.40;74.90;;;;;;5005248;28;20030;-50
2023/03/18 05:33:37;;;;;;;31.45;28.48;;;27.50;75.10;;;;;;5007242;28;20068;-52
2023/03/18 05:36:04;;;;;;;30.90;27.75;;;27.50;75.00;;;;;;5007054;28;20250;-50
2023/03/18 05:38:31;;;;;;;30.63;27.80;;;27.50;75.00;;;;;;5007075;28;20326;-50
2023/03/18 05:40:57;;;;;;;31.85;28.85;;;27.40;74.90;;;;;;5007228;28;20042;-51
2023/03/18 05:43:42;;;;;;;30.77;27.73;;;27.50;75.00;;;;;;5006906;28;20373;-51
2023/03/18 05:46:08;;;;;;;31.55;28.65;;;27.40;74.80;;;;;;5007139;28;20093;-53
2023/03/18 05:48:35;;;;;;;30.85;27.88;;;27.40;74.80;;;;;;5006796;28;20310;-51
2023/03/18 05:51:03;;;;;;;30.80;27.80;;;27.50;74.60;;;;;;5006919;28;20044;-50
2023/03/18 05:53:29;;;;;;;30.85;28.05;;;27.40;74.60;;;;;;5006930;28;20365;-55
2023/03/18 05:55:56;;;;;;;29.75;27.08;;;27.40;74.50;;;;;;5006727;28;20061;-56
2023/03/18 05:58:23;;;;;;;31.05;28.17;;;27.40;74.60;;;;;;4989930;28;20021;-54
2023/03/18 06:00:49;;;;;;;30.80;27.77;;;27.40;74.70;;;;;;5007013;28;20219;-52
2023/03/18 06:03:17;;;;;;;30.70;27.92;;;27.40;74.70;;;;;;4989159;28;20022;-53
2023/03/18 06:05:43;;;;;;;30.98;28.23;;;27.50;74.90;;;;;;5006721;28;20045;-52
2023/03/18 06:08:10;;;;;;;30.75;27.95;;;27.40;74.60;;;;;;4989594;28;20030;-56
2023/03/18 06:10:37;;;;;;;31.65;28.50;;;27.40;74.60;;;;;;5006947;28;20026;-54
2023/03/18 06:13:04;;;;;;;30.33;27.42;;;27.50;74.90;;;;;;5006826;28;20029;-51
2023/03/18 06:15:32;;;;;;;31.63;28.58;;;27.40;74.70;;;;;;5006353;28;20033;-53
2023/03/18 06:17:58;;;;;;;29.92;27.17;;;27.40;74.70;;;;;;5006436;28;20045;-51
2023/03/18 06:20:25;;;;;;;30.67;27.67;;;27.40;74.70;;;;;;5006584;28;20052;-58
2023/03/18 06:22:52;;;;;;;30.15;27.50;;;27.40;74.70;;;;;;5006356;28;20033;-50
2023/03/18 06:25:20;;;;;;;30.92;27.95;;;27.40;75.00;;;;;;5006196;28;20041;-52
2023/03/18 06:27:47;;;;;;;31.17;28.08;;;27.40;75.20;;;;;;5006212;28;20493;-50
2023/03/18 06:30:16;;;;;;;31.02;27.95;;;27.40;75.20;;;;;;5006086;28;20092;-50
2023/03/18 06:32:43;;;;;;;29.55;26.77;;;27.40;75.20;;;;;;5006154;28;20134;-50
2023/03/18 06:35:11;;;;;;;28.92;26.30;;;27.40;75.20;;;;;;5006142;28;20440;-52
2023/03/18 06:37:38;;;;;;;30.50;27.50;;;27.40;75.20;;;;;;5006007;28;20038;-56
2023/03/18 06:40:07;;;;;;;30.08;27.25;;;27.40;75.40;;;;;;5005649;28;20069;-49
2023/03/18 06:42:34;;;;;;;30.48;27.70;;;27.30;75.70;;;;;;5005637;28;20030;-51
2023/03/18 06:45:00;;;;;;;30.98;27.98;;;27.40;76.00;;;;;;5006283;28;20049;-52
2023/03/18 06:47:27;;;;;;;29.52;26.70;;;27.30;76.00;;;;;;5006315;28;20298;-47
2023/03/18 06:49:54;;;;;;;30.65;27.58;;;27.30;76.30;;;;;;5006088;28;20084;-51
2023/03/18 06:52:22;;;;;;;29.27;26.48;;;27.30;76.50;;;;;;5005671;28;20026;-50
2023/03/18 06:54:49;;;;;;;30.40;27.48;;;27.30;76.60;;;;;;5005761;28;20026;-48
2023/03/18 06:57:15;;;;;;;30.42;27.58;;;27.30;76.90;;;;;;5006106;28;20035;-52
2023/03/18 06:59:42;;;;;;;29.90;27.02;;;27.30;77.00;;;;;;5005884;28;20028;-50
2023/03/18 07:02:09;;;;;;;30.92;27.95;;;27.30;77.00;;;;;;5005994;28;20105;-50
2023/03/18 07:04:36;;;;;;;30.15;27.42;;;27.30;77.10;;;;;;5005453;28;20022;-50
2023/03/18 07:07:03;;;;;;;30.25;27.42;;;27.20;77.10;;;;;;5005867;28;20093;-51
2023/03/18 07:09:30;;;;;;;31.25;28.15;;;27.30;77.20;;;;;;5005468;28;20030;-56
2023/03/18 07:11:57;;;;;;;29.77;26.80;;;27.30;77.30;;;;;;5005594;28;20318;-52
2023/03/18 07:14:24;;;;;;;29.83;26.85;;;27.30;77.40;;;;;;5005346;28;20057;-51
2023/03/18 07:16:50;;;;;;;29.70;26.88;;;27.20;77.40;;;;;;5005585;28;20018;-51
2023/03/18 07:19:17;;;;;;;30.30;27.50;;;27.20;77.50;;;;;;5005460;28;20254;-51
2023/03/18 07:21:45;;;;;;;30.55;27.67;;;27.20;77.50;;;;;;5005624;28;20042;-51
2023/03/18 07:24:12;;;;;;;30.55;27.75;;;27.20;77.60;;;;;;5005102;28;20085;-52
2023/03/18 07:26:38;;;;;;;32.17;28.75;;;27.20;77.50;;;;;;5005305;28;20108;-53
2023/03/18 07:29:05;;;;;;;30.77;27.83;;;27.20;77.60;;;;;;5005035;28;20018;-53
2023/03/18 07:31:31;;;;;;;30.98;27.95;;;27.20;77.60;;;;;;5005723;28;20022;-52
2023/03/18 07:33:58;;;;;;;30.92;27.92;;;27.10;77.50;;;;;;5004912;28;20038;-57
2023/03/18 07:36:26;;;;;;;30.65;27.85;;;27.10;77.40;;;;;;5004854;28;20026;-52
2023/03/18 07:38:53;;;;;;;31.25;28.10;;;27.10;77.30;;;;;;5004746;28;20034;-54
2023/03/18 07:41:20;;;;;;;31.52;27.73;;;27.20;77.30;;;;;;5004921;28;20318;-50
2023/03/18 07:43:47;;;;;;;30.35;27.45;;;27.20;77.20;;;;;;5004958;28;20046;-58
2023/03/18 07:46:13;;;;;;;29.55;26.77;;;27.10;77.00;;;;;;5004879;28;20034;-52
2023/03/18 07:48:40;;;;;;;29.42;26.52;;;27.10;76.80;;;;;;5004566;28;20018;-52
2023/03/18 07:51:07;;;;;;;30.17;27.30;;;27.10;76.90;;;;;;5004880;28;20311;-52
2023/03/18 07:53:34;;;;;;;29.25;26.27;;;27.10;77.00;;;;;;5004569;28;20019;-51
2023/03/18 07:56:02;;;;;;;29.05;26.38;;;27.20;77.00;;;;;;5004703;28;20180;-53
2023/03/18 07:58:29;;;;;;;29.33;26.48;;;27.20;76.80;;;;;;5004501;28;20323;-51
2023/03/18 08:00:56;;;;;;;29.23;26.73;;;27.20;76.80;;;;;;5004644;28;20102;-55
2023/03/18 08:03:22;;;;;;;29.45;26.67;;;27.20;76.80;;;;;;5004431;28;20030;-52
2023/03/18 08:05:50;;;;;;;30.55;27.35;;;27.20;76.70;;;;;;5004796;28;20026;-52
2023/03/18 08:08:16;;;;;;;29.75;26.83;;;27.20;76.90;;;;;;5004758;28;20028;-51
2023/03/18 08:10:43;;;;;;;30.52;27.25;;;27.20;77.00;;;;;;5004391;28;20038;-51
2023/03/18 08:13:10;;;;;;;30.77;27.75;;;27.20;76.80;;;;;;5004430;28;20018;-52
2023/03/18 08:15:36;;;;;;;30.75;27.63;;;27.20;77.00;;;;;;5004709;28;20306;-52
2023/03/18 08:18:03;;;;;;;30.27;27.35;;;27.20;77.10;;;;;;5004313;28;20338;-54
2023/03/18 08:20:30;;;;;;;30.95;28.05;;;27.20;76.90;;;;;;5004347;28;20372;-51
2023/03/18 08:22:57;;;;;;;30.05;27.25;;;27.20;77.10;;;;;;5004556;28;20030;-54
2023/03/18 08:25:24;;;;;;;29.50;26.70;;;27.20;77.00;;;;;;5004224;28;20038;-51
2023/03/18 08:27:51;;;;;;;29.85;27.08;;;27.20;77.00;;;;;;5004288;28;20073;-51
2023/03/18 08:30:17;;;;;;;28.90;26.05;;;27.20;77.00;;;;;;5004151;28;20022;-49
2023/03/18 08:32:45;;;;;;;28.58;26.10;;;27.20;76.90;;;;;;5004099;28;20041;-49
2023/03/18 08:35:12;;;;;;;30.77;27.80;;;27.20;76.80;;;;;;5004229;28;20065;-57
2023/03/18 08:37:39;;;;;;;29.33;26.63;;;27.20;76.70;;;;;;5004361;28;20034;-56
2023/03/18 08:40:08;;;;;;;29.95;26.95;;;27.20;76.70;;;;;;5003877;28;20080;-46
2023/03/18 08:42:35;;;;;;;28.88;26.23;;;27.30;76.60;;;;;;5004914;28;20138;-50
2023/03/18 08:45:03;;;;;;;29.60;26.80;;;27.30;76.60;;;;;;5004272;28;20026;-51
2023/03/18 08:47:30;;;;;;;28.52;25.80;;;27.30;76.80;;;;;;5004537;28;20314;-51
2023/03/18 08:49:57;;;;;;;28.55;26.05;;;27.30;76.20;;;;;;5004124;28;20248;-52
2023/03/18 08:52:24;;;;;;;28.75;26.05;;;27.30;76.00;;;;;;5004579;28;20023;-52
2023/03/18 08:54:51;;;;;;;29.40;26.65;;;27.30;76.40;;;;;;5003925;28;20213;-52
2023/03/18 08:57:17;;;;;;;29.85;27.00;;;27.30;75.90;;;;;;5004506;28;20026;-51
2023/03/18 08:59:44;;;;;;;28.67;25.98;;;27.30;75.80;;;;;;5004141;28;20318;-51
2023/03/18 09:02:17;;;;;;;28.67;26.10;;;27.30;75.70;;;;;;5004290;28;20314;-53
2023/03/18 09:04:44;;;;;;;28.95;26.45;;;27.30;75.50;;;;;;5004044;28;20029;-51
2023/03/18 09:07:12;;;;;;;29.02;26.33;;;27.30;75.40;;;;;;5007490;28;20034;-51
2023/03/18 09:09:39;;;;;;;28.85;26.20;;;27.30;75.30;;;;;;5007488;28;20024;-53
2023/03/18 09:12:06;;;;;;;29.25;26.65;;;27.30;75.40;;;;;;5008090;28;20030;-49
2023/03/18 09:14:33;;;;;;;28.85;26.20;;;27.30;75.30;;;;;;5007689;28;20034;-52
2023/03/18 09:17:00;;;;;;;30.02;27.30;;;27.30;75.30;;;;;;5007854;28;20026;-53
2023/03/18 09:19:27;;;;;;;29.95;27.05;;;27.30;75.40;;;;;;5007655;28;20026;-51
2023/03/18 09:21:53;;;;;;;28.85;26.05;;;27.20;75.30;;;;;;5007404;28;20077;-49
2023/03/18 09:24:20;;;;;;;30.55;27.63;;;27.20;75.40;;;;;;5007231;28;20029;-50
2023/03/18 09:26:47;;;;;;;29.88;27.10;;;27.20;75.60;;;;;;5007787;28;20073;-57
2023/03/18 09:29:14;;;;;;;30.70;27.98;;;27.20;75.70;;;;;;5007376;28;20093;-59
2023/03/18 09:31:40;;;;;;;30.25;27.42;;;27.20;75.70;;;;;;5007454;28;20036;-56
2023/03/18 09:34:07;;;;;;;30.95;27.95;;;27.20;75.80;;;;;;5007563;28;20130;-60
2023/03/18 09:36:33;;;;;;;30.70;27.80;;;27.20;76.00;;;;;;5007559;28;20038;-58
2023/03/18 09:39:00;;;;;;;30.95;27.98;;;27.20;76.10;;;;;;5006900;28;20310;-44
2023/03/18 09:41:43;;;;;;;30.58;27.80;;;27.10;76.20;;;;;;4989912;28;20414;-52
2023/03/18 09:44:23;;;;;;;30.92;27.73;;;27.10;76.40;;;;;;5007081;28;20045;-51
2023/03/18 09:47:06;;;;;;;30.88;28.17;;;27.10;76.50;;;;;;5007331;28;20041;-51
2023/03/18 09:50:11;;;;;;;30.23;27.20;;;27.10;76.40;;;;;;5012892;28;20216;-49
2023/03/18 09:52:47;;;;;;;30.67;27.75;;;27.10;76.60;;;;;;5026611;28;20314;-55
2023/03/18 09:55:26;;;;;;;31.02;28.00;;;27.10;76.70;;;;;;5025326;28;20038;-51
2023/03/18 09:58:00;;;;;;;31.13;28.05;;;27.10;76.60;;;;;;5025164;28;20017;-51
2023/03/18 10:00:33;;;;;;;28.83;26.20;;;27.10;76.70;;;;;;5026364;28;20034;-55
2023/03/18 10:03:36;;;;;;;31.45;28.45;;;27.10;76.70;;;;;;5026367;28;20068;-54
2023/03/18 10:06:05;;;;;;;30.05;27.25;;;27.10;76.90;;;;;;4990177;28;20045;-57
2023/03/18 10:09:03;;;;;;;31.45;28.58;;;27.10;76.60;;;;;;5014675;28;20218;-51
2023/03/18 10:11:43;;;;;;;31.30;28.15;;;27.10;76.60;;;;;;5017752;28;20270;-51
2023/03/18 10:14:37;;;;;;;30.38;27.33;;;27.10;76.40;;;;;;5008744;28;20017;-51
2023/03/18 10:17:12;;;;;;;30.67;27.52;;;27.10;76.40;;;;;;5019020;28;20053;-51
2023/03/18 10:19:53;;;;;;;30.63;27.60;;;27.10;76.40;;;;;;5010532;28;20018;-53
2023/03/18 10:22:52;;;;;;;30.85;27.73;;;27.10;77.00;;;;;;5007035;28;20038;-51
2023/03/18 10:25:45;;;;;;;30.92;27.92;;;27.20;76.80;;;;;;5006218;28;20018;-51
2023/03/18 10:28:39;;;;;;;29.73;26.92;;;27.20;76.50;;;;;;5006258;28;20038;-53
2023/03/18 10:31:42;;;;;;;30.27;27.17;;;27.10;76.30;;;;;;4979868;28;20271;-52
2023/03/18 10:34:17;;;;;;;31.13;28.13;;;27.10;76.50;;;;;;5006110;28;20052;-50
2023/03/18 10:37:02;;;;;;;31.33;27.92;;;27.10;76.60;;;;;;5006436;28;20022;-50
2023/03/18 10:39:30;;;;;;;30.67;27.67;;;27.10;76.60;;;;;;5005829;28;20069;-53
2023/03/18 10:42:01;;;;;;;30.90;28.08;;;27.10;76.60;;;;;;5006562;28;20033;-50
2023/03/18 10:44:35;;;;;;;31.77;28.67;;;27.10;76.60;;;;;;5005792;28;20041;-52
2023/03/18 10:47:14;;;;;;;31.13;28.05;;;27.10;76.80;;;;;;5006351;28;20042;-51
2023/03/18 10:49:49;;;;;;;31.10;28.05;;;27.10;77.00;;;;;;5005636;28;20352;-52
2023/03/18 10:52:24;;;;;;;31.02;28.02;;;27.10;77.80;;;;;;5006455;28;20026;-57
2023/03/18 10:54:51;;;;;;;31.80;28.50;;;27.00;77.50;;;;;;5025012;28;20038;-51
2023/03/18 10:57:23;;;;;;;31.83;28.58;;;27.00;77.50;;;;;;5025908;28;20064;-54
2023/03/18 10:59:51;;;;;;;32.85;29.55;;;27.00;77.70;;;;;;5025240;28;20053;-50
2023/03/18 11:02:34;;;;;;;33.13;29.38;;;27.00;77.70;;;;;;5007754;28;20043;-52
2023/03/18 11:05:32;;;;;;;33.60;30.13;;;27.00;77.90;;;;;;5005610;28;20100;-51
2023/03/18 11:08:27;;;;;;;35.58;29.50;;;27.00;77.90;;;;;;5005630;28;20030;-51
2023/03/18 11:10:54;;;;;;;35.05;31.33;;;27.00;77.90;;;;;;5010592;28;20058;-51
2023/03/18 11:13:22;;;;;;;35.38;31.60;;;27.00;78.00;;;;;;5018343;28;20072;-51
2023/03/18 11:15:55;;;;;;;34.53;30.98;;;27.10;78.30;;;;;;5009375;28;20247;-51
2023/03/18 11:18:26;;;;;;;38.95;31.13;;;27.10;78.10;;;;;;5019110;28;20014;-53
2023/03/18 11:21:03;;;;;;;41.97;30.90;;;27.10;78.10;;;;;;5013726;28;20268;-52
2023/03/18 11:26:25;;;;;;;37.38;28.20;;;26.90;81.00;;;;;;5014461;28;20061;-48
2023/03/18 11:29:03;;;;;;;33.30;27.85;;;26.80;80.00;;;;;;5012425;28;20090;-52
2023/03/18 11:31:31;;;;;;;40.00;28.15;;;26.70;79.30;;;;;;5022069;28;20076;-46
2023/03/18 11:33:59;;;;;;;31.58;27.80;;;26.70;80.20;;;;;;5024797;28;20014;-47
2023/03/18 11:36:27;;;;;;;35.78;29.35;;;26.80;80.00;;;;;;5023887;28;20033;-48
2023/03/18 11:39:05;;;;;;;32.30;27.08;;;26.90;80.00;;;;;;5022196;28;20041;-52
2023/03/18 11:41:36;;;;;;;34.95;27.55;;;26.90;79.90;;;;;;5023524;28;20041;-47
2023/03/18 11:44:06;;;;;;;52.00;28.70;;;26.90;79.70;;;;;;5024378;28;20045;-47
2023/03/18 11:46:37;;;;;;;42.95;27.73;;;26.90;79.70;;;;;;5025021;28;20056;-46
2023/03/18 11:49:05;;;;;;;32.92;26.88;;;27.00;79.90;;;;;;5024659;28;20181;-47
2023/03/18 11:51:53;;;;;;;34.58;27.85;;;27.00;79.80;;;;;;5025087;28;20286;-52
2023/03/18 11:54:44;;;;;;;32.60;27.00;;;27.00;79.90;;;;;;5023233;28;20246;-48
2023/03/18 11:57:32;;;;;;;37.88;27.15;;;27.00;79.90;;;;;;5025367;28;20030;-53
2023/03/18 12:00:04;;;;;;;55.55;30.88;;;27.00;79.90;;;;;;5024884;28;20036;-50
2023/03/18 12:02:54;;;;;;;55.10;30.13;;;27.00;80.10;;;;;;5024124;28;20227;-57
2023/03/18 12:05:57;;;;;;;94.60;34.20;;;27.00;80.00;;;;;;5006663;28;20092;-49
2023/03/18 12:08:30;;;;;;;122.15;37.88;;;27.00;80.10;;;;;;5004358;28;20037;-50
2023/03/18 12:11:52;;;;;;;155.25;40.60;;;27.00;81.10;;;;;;5024592;28;20068;-48
2023/03/18 12:14:25;;;;;;;148.20;38.35;;;27.00;80.90;;;;;;4926485;29;20095;-46
2023/03/18 12:17:10;;;;;;;119.95;37.83;;;27.00;81.00;;;;;;5023641;28;20053;-48
2023/03/18 12:19:54;;;;;;;94.95;33.72;;;27.00;81.20;;;;;;5024941;28;20026;-47
2023/03/18 12:22:59;;;;;;;61.88;32.53;;;27.00;82.00;;;;;;5025337;28;20123;-44
2023/03/18 12:26:00;;;;;;;63.75;32.50;;;27.00;81.60;;;;;;4987723;28;20038;-52
2023/03/18 12:28:56;;;;;;;42.90;30.27;;;26.90;81.90;;;;;;5024314;28;20064;-47
2023/03/18 12:31:44;;;;;;;47.55;30.33;;;26.90;82.00;;;;;;5025045;28;20101;-49
2023/03/18 12:34:34;;;;;;;42.22;29.35;;;26.90;82.20;;;;;;5024398;28;20022;-52
2023/03/18 12:37:20;;;;;;;43.05;30.20;;;26.90;82.10;;;;;;5012197;28;20038;-44
2023/03/18 12:40:16;;;;;;;42.10;31.33;;;26.90;82.20;;;;;;5024226;28;20073;-45
2023/03/18 12:42:54;;;;;;;35.95;32.05;;;26.90;82.40;;;;;;5028493;28;20072;-51
2023/03/18 12:45:32;;;;;;;55.38;31.50;;;26.90;82.60;;;;;;5028101;28;20314;-46
2023/03/18 12:48:11;;;;;;;98.47;34.10;;;26.90;82.80;;;;;;5028794;28;20029;-49
2023/03/18 12:50:55;;;;;;;90.90;34.53;;;26.90;83.00;;;;;;5028590;28;20034;-44